M/y Tweener — WDH5312 — position and weather

sailwx.info

Track history (hours):
 
Tides and Currents Weather Stations Pressure Air Temp Water Temp Dewpoint Dewpoint Depression Visibility Wind Speed Wind Dir Waves Ship Positions

M/y Tweener

Owner: Kocher III, Thomas L, Fort Lauderdale, FL. More information available from US FCC via Universal Licensing System and Coast Guard Vessel Documentation Center.

Last reported at 2017-Oct-01 02:56 UTC. Time now 2017-Oct-17 13:21 UTC.
Position N 33°42' W 118°21'.
Warning: this ship's position is 16 days out of date.

Length 33 m.

Type: Pleasure craft. MMSI: 367626680.

Date/timePositionNaut miles runAvg speedWind from/ knotsBaromVisibWave heightAir tempDewpointWater temp
2017-Oct-01 02:56N 33°42' W 118°21'  
2017-Sep-25 01:41N 33°60' W 118°57'317.5
2017-Sep-25 01:30N 34°00' W 119°01'917.5
2017-Sep-25 01:00N 34°00' W 119°12'813.4
2017-Sep-25 00:22N 34°01' W 119°22'615.4
2017-Sep-24 23:57N 34°02' W 119°29'916.2
2017-Sep-24 23:25N 34°04' W 119°40'715.6
2017-Sep-24 22:57N 34°04' W 119°48'713.9
2017-Sep-24 22:28N 34°03' W 119°56'5 1.7
2017-Sep-24 19:45N 33°59' W 119°58'2415.1
2017-Sep-24 18:08N 33°58' W 119°29'316.2
2017-Sep-24 17:56N 33°58' W 119°25'715.8
2017-Sep-24 17:29N 33°59' W 119°17'815.9
2017-Sep-24 17:00N 33°59' W 119°07'816.0
2017-Sep-24 16:30N 33°60' W 118°58'  
Track history (hours):
 
Tides and Currents Weather Stations Pressure Air Temp Water Temp Dewpoint Dewpoint Depression Visibility Wind Speed Wind Dir Waves Ship Positions

M/y Tweener

Owner: Kocher III, Thomas L, Fort Lauderdale, FL. More information available from US FCC via Universal Licensing System and Coast Guard Vessel Documentation Center.

Last reported at 2017-Oct-01 02:56 UTC. Time now 2017-Oct-17 13:21 UTC.
Position N 33°42' W 118°21'.
Warning: this ship's position is 16 days out of date.

Length 33 m.

Type: Pleasure craft. MMSI: 367626680.

Date/timePositionNaut miles runAvg speedWind from/ knotsBaromVisibWave heightAir tempDewpointWater temp
2017-Oct-01 02:56N 33°42' W 118°21'  
2017-Sep-25 01:41N 33°60' W 118°57'317.5
2017-Sep-25 01:30N 34°00' W 119°01'917.5
2017-Sep-25 01:00N 34°00' W 119°12'813.4
2017-Sep-25 00:22N 34°01' W 119°22'615.4
2017-Sep-24 23:57N 34°02' W 119°29'916.2
2017-Sep-24 23:25N 34°04' W 119°40'715.6
2017-Sep-24 22:57N 34°04' W 119°48'713.9
2017-Sep-24 22:28N 34°03' W 119°56'5 1.7
2017-Sep-24 19:45N 33°59' W 119°58'2415.1
2017-Sep-24 18:08N 33°58' W 119°29'316.2
2017-Sep-24 17:56N 33°58' W 119°25'715.8
2017-Sep-24 17:29N 33°59' W 119°17'815.9
2017-Sep-24 17:00N 33°59' W 119°07'816.0
2017-Sep-24 16:30N 33°60' W 118°58'  

Dump ship's entire track history